createdAt,value
2022-12-12T00:00:37.190Z,9.05
2022-12-12T00:03:05.247Z,10.32
2022-12-12T00:05:32.642Z,9.23
2022-12-12T00:07:59.940Z,9.50
2022-12-12T00:10:27.680Z,7.97
2022-12-12T00:12:54.912Z,8.10
2022-12-12T00:15:22.307Z,10.35
2022-12-12T00:17:49.525Z,7.68
2022-12-12T00:20:16.960Z,8.93
2022-12-12T00:22:44.155Z,8.23
2022-12-12T00:25:12.238Z,8.23
2022-12-12T00:27:39.730Z,8.13
2022-12-12T00:30:08.304Z,8.50
2022-12-12T00:32:35.585Z,7.65
2022-12-12T00:35:02.917Z,7.55
2022-12-12T00:37:30.280Z,7.05
2022-12-12T00:39:57.946Z,7.90
2022-12-12T00:42:27.637Z,7.75
2022-12-12T00:44:55.063Z,7.38
2022-12-12T00:47:22.495Z,7.63
2022-12-12T00:49:49.732Z,7.30
2022-12-12T00:52:19.827Z,10.18
2022-12-12T00:54:47.124Z,7.13
2022-12-12T00:57:14.487Z,7.95
2022-12-12T00:59:41.896Z,9.90
2022-12-12T01:02:09.384Z,8.18
2022-12-12T01:04:36.606Z,8.25
2022-12-12T01:07:03.933Z,9.48
2022-12-12T01:09:31.248Z,10.25
2022-12-12T01:11:58.468Z,8.98
2022-12-12T01:14:25.856Z,8.18
2022-12-12T01:16:53.149Z,7.85
2022-12-12T01:19:20.468Z,10.40
2022-12-12T01:21:47.888Z,9.80
2022-12-12T01:24:15.142Z,11.25
2022-12-12T01:26:42.456Z,16.15
2022-12-12T01:29:09.720Z,19.38
2022-12-12T01:31:37.047Z,18.20
2022-12-12T01:34:04.434Z,12.25
2022-12-12T01:36:31.735Z,12.15
2022-12-12T01:39:00.581Z,11.65
2022-12-12T01:41:27.899Z,12.27
2022-12-12T01:43:55.755Z,9.70
2022-12-12T01:46:34.067Z,10.00
2022-12-12T01:49:24.245Z,11.98
2022-12-12T01:51:56.694Z,13.18
2022-12-12T01:54:29.059Z,13.05
2022-12-12T01:56:59.076Z,12.52
2022-12-12T01:59:28.220Z,11.95
2022-12-12T02:01:56.891Z,11.50
2022-12-12T02:04:26.339Z,11.38
2022-12-12T02:06:55.178Z,8.13
2022-12-12T02:09:25.116Z,10.90
2022-12-12T02:11:55.822Z,9.07
2022-12-12T02:14:30.147Z,11.10
2022-12-12T02:17:24.912Z,9.93
2022-12-12T02:20:29.587Z,11.63
2022-12-12T02:23:16.088Z,11.88
2022-12-12T02:26:10.836Z,8.07
2022-12-12T02:28:52.910Z,10.18
2022-12-12T02:31:22.855Z,11.40
2022-12-12T02:33:59.359Z,11.52
2022-12-12T02:37:01.837Z,11.75
2022-12-12T02:40:15.467Z,12.23
2022-12-12T02:43:11.444Z,11.80
2022-12-12T02:45:45.564Z,12.40
2022-12-12T02:48:16.569Z,11.13
2022-12-12T02:50:44.907Z,10.07
2022-12-12T02:53:12.221Z,10.60
2022-12-12T02:55:39.481Z,12.15
2022-12-12T02:58:07.022Z,10.93
2022-12-12T03:00:45.304Z,11.00
2022-12-12T03:03:40.211Z,10.35
2022-12-12T03:06:57.780Z,10.77
2022-12-12T03:09:34.692Z,10.65
2022-12-12T03:14:52.204Z,11.38
2022-12-12T03:17:25.351Z,12.32
2022-12-12T03:20:21.072Z,10.15
2022-12-12T03:23:29.611Z,11.13
2022-12-12T03:28:46.935Z,11.43
2022-12-12T03:31:18.154Z,12.00
2022-12-12T03:34:08.365Z,13.00
2022-12-12T03:36:51.255Z,10.75
2022-12-12T03:39:28.694Z,13.38
2022-12-12T03:42:02.804Z,13.45
2022-12-12T03:44:41.653Z,11.05
2022-12-12T03:47:23.393Z,11.20
2022-12-12T03:50:16.620Z,11.40
2022-12-12T03:52:54.352Z,11.95
2022-12-12T03:55:26.695Z,13.05
2022-12-12T03:58:05.289Z,12.77
2022-12-12T04:00:37.222Z,10.88
2022-12-12T04:03:44.658Z,12.00
2022-12-12T04:06:27.004Z,9.05
2022-12-12T04:09:18.011Z,11.38
2022-12-12T04:12:10.156Z,11.48
2022-12-12T04:14:53.041Z,12.55
2022-12-12T04:17:36.452Z,12.63
2022-12-12T04:21:05.790Z,13.85
2022-12-12T04:23:40.224Z,12.80
2022-12-12T04:26:34.164Z,14.52
2022-12-12T04:29:15.760Z,13.63
2022-12-12T04:32:06.915Z,13.73
2022-12-12T04:34:50.084Z,12.75
2022-12-12T04:37:25.852Z,13.77
2022-12-12T04:39:58.218Z,14.90
2022-12-12T04:42:30.561Z,14.15
2022-12-12T04:45:04.978Z,14.63
2022-12-12T04:47:35.244Z,14.32
2022-12-12T04:50:03.928Z,14.05
2022-12-12T04:52:33.805Z,14.15
2022-12-12T04:55:05.387Z,14.65
2022-12-12T04:57:47.318Z,15.15
2022-12-12T05:00:15.157Z,15.13
2022-12-12T05:03:06.171Z,14.82
2022-12-12T05:06:01.063Z,15.50
2022-12-12T05:08:36.169Z,14.75
2022-12-12T05:11:05.721Z,13.77
2022-12-12T05:13:38.696Z,13.23
2022-12-12T05:16:21.766Z,14.80
2022-12-12T05:18:49.404Z,14.70
2022-12-12T05:21:16.733Z,14.43
2022-12-12T05:23:43.966Z,13.60
2022-12-12T05:26:27.050Z,15.75
2022-12-12T05:28:54.951Z,15.48
2022-12-12T05:31:22.653Z,15.32
2022-12-12T05:33:50.348Z,15.10
2022-12-12T05:36:17.742Z,15.80
2022-12-12T05:38:45.216Z,17.60
2022-12-12T05:41:12.467Z,15.75
2022-12-12T05:43:40.035Z,15.95
2022-12-12T05:46:07.443Z,16.45
2022-12-12T05:48:34.751Z,14.68
2022-12-12T05:51:02.658Z,15.57
2022-12-12T05:53:30.339Z,16.42
2022-12-12T05:55:58.392Z,15.18
2022-12-12T05:58:25.693Z,14.65
2022-12-12T06:00:57.250Z,16.48
2022-12-12T06:03:27.571Z,14.60
2022-12-12T06:05:54.797Z,15.68
2022-12-12T06:08:25.043Z,15.30
2022-12-12T06:10:52.720Z,15.68
2022-12-12T06:13:20.007Z,16.13
2022-12-12T06:15:47.313Z,15.45
2022-12-12T06:18:14.998Z,17.00
2022-12-12T06:20:43.224Z,16.52
2022-12-12T06:23:10.446Z,17.60
2022-12-12T06:25:37.685Z,17.10
2022-12-12T06:28:05.045Z,17.10
2022-12-12T06:30:32.267Z,17.13
2022-12-12T06:32:59.543Z,17.70
2022-12-12T06:35:26.784Z,17.50
2022-12-12T06:37:54.055Z,16.90
2022-12-12T06:40:21.415Z,18.50
2022-12-12T06:42:49.074Z,17.20
2022-12-12T06:45:17.006Z,13.02
2022-12-12T06:47:44.578Z,14.52
2022-12-12T06:50:12.037Z,17.17
2022-12-12T06:52:39.336Z,17.90
2022-12-12T06:55:06.898Z,17.80
2022-12-12T06:57:34.692Z,16.83
2022-12-12T07:00:02.184Z,16.75
2022-12-12T07:02:30.403Z,16.25
2022-12-12T07:04:58.203Z,17.48
2022-12-12T07:07:25.558Z,15.57
2022-12-12T07:09:52.787Z,10.30
2022-12-12T07:12:20.274Z,17.20
2022-12-12T07:14:47.789Z,12.57
2022-12-12T07:17:14.987Z,11.25
2022-12-12T07:19:42.283Z,10.38
2022-12-12T07:22:10.677Z,12.45
2022-12-12T07:24:38.318Z,8.70
2022-12-12T07:27:06.836Z,9.65
2022-12-12T07:29:34.303Z,13.18
2022-12-12T07:32:02.251Z,13.05
2022-12-12T07:34:30.096Z,14.52
2022-12-12T07:37:02.618Z,16.05
2022-12-12T07:39:34.068Z,15.00
2022-12-12T07:42:01.279Z,15.32
2022-12-12T07:44:28.743Z,15.05
2022-12-12T07:46:59.026Z,14.05
2022-12-12T07:49:27.804Z,13.30
2022-12-12T07:51:55.353Z,13.68
2022-12-12T07:54:22.623Z,14.27
2022-12-12T07:56:50.481Z,13.93
2022-12-12T07:59:17.928Z,14.38
2022-12-12T08:01:45.233Z,13.68
2022-12-12T08:04:12.511Z,14.80
2022-12-12T08:06:39.722Z,14.80
2022-12-12T08:09:07.006Z,13.90
2022-12-12T08:11:34.336Z,12.50
2022-12-12T08:14:01.699Z,11.18
2022-12-12T08:16:29.892Z,12.30
2022-12-12T08:18:58.686Z,11.95
2022-12-12T08:21:27.301Z,13.40
2022-12-12T08:24:02.221Z,14.45
2022-12-12T08:26:30.444Z,15.48
2022-12-12T08:28:58.447Z,14.90
2022-12-12T08:31:26.106Z,14.27
2022-12-12T08:33:53.632Z,14.80
2022-12-12T08:36:24.334Z,13.85
2022-12-12T08:38:52.204Z,14.18
2022-12-12T08:41:20.148Z,10.68
2022-12-12T08:43:47.455Z,13.15
2022-12-12T08:46:18.076Z,12.85
2022-12-12T08:48:46.778Z,14.57
2022-12-12T08:51:15.098Z,11.65
2022-12-12T08:53:50.257Z,13.68
2022-12-12T08:56:18.848Z,13.65
2022-12-12T08:58:46.575Z,13.93
2022-12-12T09:01:19.661Z,14.90
2022-12-12T09:03:47.948Z,15.40
2022-12-12T09:06:15.945Z,12.65
2022-12-12T09:08:43.493Z,14.00
2022-12-12T09:11:11.396Z,13.52
2022-12-12T09:13:39.822Z,16.13
2022-12-12T09:16:08.951Z,16.50
2022-12-12T09:18:37.368Z,13.43
2022-12-12T09:21:05.550Z,11.65
2022-12-12T09:23:33.038Z,13.55
2022-12-12T09:26:05.911Z,12.82
2022-12-12T09:28:33.362Z,13.70
2022-12-12T09:31:00.682Z,13.70
2022-12-12T09:33:28.039Z,11.68
2022-12-12T09:36:03.770Z,13.15
2022-12-12T09:38:31.078Z,14.27
2022-12-12T09:41:00.684Z,11.68
2022-12-12T09:43:33.547Z,11.43
2022-12-12T09:46:04.070Z,12.55
2022-12-12T09:48:42.000Z,13.27
2022-12-12T09:51:11.542Z,11.70
2022-12-12T09:53:41.649Z,12.32
2022-12-12T09:56:56.302Z,10.23
2022-12-12T09:59:32.502Z,9.27
2022-12-12T10:02:23.328Z,11.02
2022-12-12T10:05:28.273Z,11.20
2022-12-12T10:08:22.214Z,10.45
2022-12-12T10:10:58.070Z,9.60
2022-12-12T10:13:28.910Z,9.27
2022-12-12T10:16:06.728Z,10.95
2022-12-12T10:18:39.900Z,12.45
2022-12-12T10:21:15.802Z,10.27
2022-12-12T10:23:50.843Z,8.90
2022-12-12T10:26:22.047Z,9.63
2022-12-12T10:29:00.085Z,9.77
2022-12-12T10:31:36.907Z,10.25
2022-12-12T10:34:29.120Z,10.07
2022-12-12T10:37:20.908Z,11.70
2022-12-12T10:40:14.052Z,11.57
2022-12-12T10:42:45.769Z,11.05
2022-12-12T10:45:54.070Z,10.45
2022-12-12T10:48:21.537Z,10.20
2022-12-12T10:50:50.223Z,10.38
2022-12-12T10:53:19.429Z,12.52
2022-12-12T10:55:59.074Z,11.00
2022-12-12T10:58:28.452Z,10.65
2022-12-12T11:01:10.180Z,11.93
2022-12-12T11:03:57.251Z,9.85
2022-12-12T11:06:36.222Z,10.40
2022-12-12T11:09:18.553Z,10.40
2022-12-12T11:11:57.488Z,9.85
2022-12-12T11:14:51.885Z,10.57
2022-12-12T11:17:26.563Z,10.30
2022-12-12T11:19:57.001Z,10.15
2022-12-12T11:22:24.925Z,11.35
2022-12-12T11:24:52.870Z,11.30
2022-12-12T11:27:31.319Z,11.07
2022-12-12T11:30:21.166Z,11.27
2022-12-12T11:32:52.049Z,11.00
2022-12-12T11:35:31.847Z,11.10
2022-12-12T11:38:06.393Z,11.48
2022-12-12T11:40:36.612Z,11.40
2022-12-12T11:43:22.321Z,12.00
2022-12-12T11:46:16.875Z,12.40
2022-12-12T11:48:56.955Z,12.75
2022-12-12T11:51:40.358Z,13.77
2022-12-12T11:54:12.031Z,15.38
2022-12-12T11:57:04.595Z,14.73
2022-12-12T11:59:46.857Z,16.15
2022-12-12T12:02:32.286Z,17.15
2022-12-12T12:05:02.306Z,16.88
2022-12-12T12:07:48.949Z,15.77
2022-12-12T12:10:26.225Z,16.37
2022-12-12T12:13:01.427Z,15.27
2022-12-12T12:15:32.298Z,15.15
2022-12-12T12:18:26.591Z,15.23
2022-12-12T12:21:27.026Z,15.02
2022-12-12T12:24:32.184Z,13.60
2022-12-12T12:27:08.444Z,15.65
2022-12-12T12:29:57.132Z,15.48
2022-12-12T12:32:53.339Z,14.57
2022-12-12T12:35:33.345Z,15.05
2022-12-12T12:38:13.060Z,14.63
2022-12-12T12:41:04.344Z,14.93
2022-12-12T12:44:09.717Z,16.17
2022-12-12T12:46:49.160Z,15.73
2022-12-12T12:49:31.476Z,17.70
2022-12-12T12:52:00.789Z,16.38
2022-12-12T12:54:42.142Z,16.80
2022-12-12T12:57:16.539Z,17.05
2022-12-12T12:59:51.450Z,17.58
2022-12-12T13:02:59.087Z,17.90
2022-12-12T13:05:51.615Z,16.83
2022-12-12T13:08:46.557Z,17.75
2022-12-12T13:11:36.585Z,16.95
2022-12-12T13:14:16.603Z,16.02
2022-12-12T13:16:45.525Z,17.35
2022-12-12T13:19:36.061Z,17.40
2022-12-12T13:22:38.945Z,16.50
2022-12-12T13:25:39.312Z,18.30
2022-12-12T13:28:21.560Z,17.40
2022-12-12T13:31:12.753Z,18.27
2022-12-12T13:33:54.382Z,18.45
2022-12-12T13:36:36.736Z,18.02
2022-12-12T13:39:06.574Z,18.08
2022-12-12T13:42:13.121Z,17.80
2022-12-12T13:44:46.012Z,16.73
2022-12-12T13:47:22.534Z,18.23
2022-12-12T13:49:53.807Z,14.52
2022-12-12T13:52:28.599Z,17.35
2022-12-12T13:55:19.000Z,19.40
2022-12-12T13:58:02.639Z,16.90
2022-12-12T14:00:35.238Z,19.80
2022-12-12T14:03:28.887Z,17.95
2022-12-12T14:06:10.699Z,18.92
2022-12-12T14:08:46.278Z,18.40
2022-12-12T14:11:32.228Z,19.25
2022-12-12T14:14:19.321Z,21.60
2022-12-12T14:16:55.453Z,21.00
2022-12-12T14:19:29.361Z,21.07
2022-12-12T14:21:56.891Z,20.10
2022-12-12T14:24:33.013Z,20.70
2022-12-12T14:27:04.794Z,21.30
2022-12-12T14:29:40.476Z,21.77
2022-12-12T14:32:13.753Z,21.52
2022-12-12T14:34:41.453Z,22.80
2022-12-12T14:37:39.161Z,21.65
2022-12-12T14:40:21.379Z,21.70
2022-12-12T14:43:19.569Z,23.40
2022-12-12T14:45:49.572Z,21.63
2022-12-12T14:48:19.832Z,23.10
2022-12-12T14:51:01.207Z,21.83
2022-12-12T14:53:56.169Z,22.60
2022-12-12T14:56:29.532Z,22.45
2022-12-12T14:59:00.760Z,21.40
2022-12-12T15:01:36.065Z,22.45
2022-12-12T15:04:11.054Z,21.77
2022-12-12T15:06:43.098Z,22.77
2022-12-12T15:09:20.074Z,23.83
2022-12-12T15:11:48.621Z,21.85
2022-12-12T15:14:22.042Z,22.40
2022-12-12T15:17:07.120Z,22.08
2022-12-12T15:19:41.720Z,21.35
2022-12-12T15:22:29.893Z,22.73
2022-12-12T15:24:59.869Z,22.83
2022-12-12T15:27:34.021Z,23.63
2022-12-12T15:30:03.457Z,23.85
2022-12-12T15:32:30.814Z,25.60
2022-12-12T15:35:07.561Z,22.85
2022-12-12T15:37:36.741Z,23.10
2022-12-12T15:40:06.763Z,22.35
2022-12-12T15:42:34.375Z,23.38
2022-12-12T15:45:02.989Z,23.83
2022-12-12T15:47:30.542Z,24.98
2022-12-12T15:50:15.163Z,24.13
2022-12-12T15:52:42.876Z,25.40
2022-12-12T15:55:30.575Z,23.77
2022-12-12T15:57:58.468Z,25.45
2022-12-12T16:00:33.399Z,24.17
2022-12-12T16:03:23.892Z,24.42
2022-12-12T16:06:04.233Z,21.40
2022-12-12T16:08:33.356Z,25.98
2022-12-12T16:11:04.165Z,26.80
2022-12-12T16:13:40.769Z,26.95
2022-12-12T16:16:50.145Z,23.83
2022-12-12T16:19:35.832Z,22.38
2022-12-12T16:22:28.041Z,23.17
2022-12-12T16:25:09.297Z,23.00
2022-12-12T16:27:36.608Z,22.70
2022-12-12T16:30:05.147Z,24.10
2022-12-12T16:32:32.441Z,24.38
2022-12-12T16:34:59.888Z,25.10
2022-12-12T16:37:27.354Z,26.30
2022-12-12T16:39:54.918Z,25.83
2022-12-12T16:42:24.062Z,24.85
2022-12-12T16:44:51.620Z,26.33
2022-12-12T16:47:22.016Z,23.40
2022-12-12T16:49:49.814Z,25.00
2022-12-12T16:52:18.909Z,25.50
2022-12-12T16:54:52.828Z,23.25
2022-12-12T16:57:21.977Z,25.23
2022-12-12T16:59:49.416Z,22.38
2022-12-12T17:02:22.063Z,24.65
2022-12-12T17:04:50.303Z,22.13
2022-12-12T17:07:17.869Z,23.65
2022-12-12T17:09:45.204Z,23.88
2022-12-12T17:12:13.201Z,23.40
2022-12-12T17:14:40.653Z,23.92
2022-12-12T17:17:07.983Z,22.38
2022-12-12T17:19:35.273Z,23.52
2022-12-12T17:22:03.190Z,23.70
2022-12-12T17:24:31.048Z,24.88
2022-12-12T17:26:58.571Z,21.95
2022-12-12T17:29:26.024Z,21.08
2022-12-12T17:31:53.350Z,22.50
2022-12-12T17:34:20.674Z,23.90
2022-12-12T17:36:48.404Z,22.80
2022-12-12T17:39:15.720Z,22.52
2022-12-12T17:41:42.987Z,22.15
2022-12-12T17:44:10.293Z,23.00
2022-12-12T17:46:37.612Z,21.35
2022-12-12T17:49:05.143Z,23.67
2022-12-12T17:51:32.534Z,22.63
2022-12-12T17:54:00.222Z,22.50
2022-12-12T17:56:27.709Z,23.20
2022-12-12T17:58:55.477Z,22.27
2022-12-12T18:01:29.263Z,22.83
2022-12-12T18:03:57.829Z,23.75
2022-12-12T18:06:26.452Z,23.48
2022-12-12T18:08:54.557Z,23.17
2022-12-12T18:11:26.839Z,23.27
2022-12-12T18:14:06.798Z,24.65
2022-12-12T18:16:35.923Z,24.88
2022-12-12T18:19:04.109Z,24.27
2022-12-12T18:24:21.756Z,23.30
2022-12-12T18:26:53.880Z,21.92
2022-12-12T18:29:22.125Z,22.75
2022-12-12T18:31:51.869Z,21.02
2022-12-12T18:34:19.585Z,20.20
2022-12-12T18:36:46.906Z,22.17
2022-12-12T18:39:14.251Z,23.88
2022-12-12T18:41:41.560Z,24.52
2022-12-12T18:44:12.941Z,25.52
2022-12-12T18:46:43.446Z,19.40
2022-12-12T18:49:15.844Z,19.23
2022-12-12T18:51:45.377Z,17.25
2022-12-12T18:54:15.979Z,19.60
2022-12-12T18:56:46.004Z,19.70
2022-12-12T18:59:14.245Z,18.67
2022-12-12T19:01:41.733Z,19.55
2022-12-12T19:04:12.606Z,19.35
2022-12-12T19:06:43.100Z,18.50
2022-12-12T19:09:16.216Z,18.83
2022-12-12T19:11:44.390Z,19.58
2022-12-12T19:14:13.422Z,20.65
2022-12-12T19:16:42.293Z,21.63
2022-12-12T19:19:10.342Z,21.45
2022-12-12T19:21:38.704Z,20.05
2022-12-12T19:24:09.175Z,19.88
2022-12-12T19:26:38.352Z,18.75
2022-12-12T19:29:09.929Z,19.73
2022-12-12T19:31:37.532Z,18.02
2022-12-12T19:34:06.662Z,20.83
2022-12-12T19:36:35.705Z,19.90
2022-12-12T19:39:05.057Z,19.20
2022-12-12T19:41:32.945Z,20.60
2022-12-12T19:44:01.691Z,20.95
2022-12-12T19:46:30.968Z,20.27
2022-12-12T19:49:03.873Z,20.98
2022-12-12T19:51:32.799Z,18.90
2022-12-12T19:54:01.619Z,19.45
2022-12-12T19:56:31.503Z,21.40
2022-12-12T19:58:59.665Z,20.60
2022-12-12T20:01:32.190Z,19.33
2022-12-12T20:04:05.230Z,20.35
2022-12-12T20:06:40.901Z,21.33
2022-12-12T20:09:13.539Z,22.77
2022-12-12T20:11:41.317Z,20.58
2022-12-12T20:14:16.570Z,20.77
2022-12-12T20:16:44.512Z,18.92
2022-12-12T20:19:13.134Z,19.88
2022-12-12T20:22:00.283Z,18.77
2022-12-12T20:24:28.999Z,19.63
2022-12-12T20:26:56.980Z,17.88
2022-12-12T20:29:24.261Z,17.98
2022-12-12T20:31:51.991Z,17.35
2022-12-12T20:34:24.470Z,19.65
2022-12-12T20:36:52.568Z,18.70
2022-12-12T20:39:21.937Z,16.90
2022-12-12T20:41:50.580Z,16.90
2022-12-12T20:44:17.851Z,20.35
2022-12-12T20:46:46.379Z,18.92
2022-12-12T20:49:17.364Z,19.33
2022-12-12T20:52:00.651Z,19.67
2022-12-12T20:54:29.177Z,17.52
2022-12-12T20:56:58.383Z,17.52
2022-12-12T20:59:26.655Z,17.85
2022-12-12T21:01:54.525Z,20.85
2022-12-12T21:04:22.424Z,19.73
2022-12-12T21:06:51.542Z,19.30
2022-12-12T21:09:24.795Z,19.45
2022-12-12T21:11:54.248Z,20.05
2022-12-12T21:14:21.803Z,18.88
2022-12-12T21:16:49.122Z,18.88
2022-12-12T21:19:18.703Z,19.33
2022-12-12T21:21:46.483Z,20.00
2022-12-12T21:24:16.772Z,19.13
2022-12-12T21:26:44.787Z,20.27
2022-12-12T21:29:12.196Z,20.00
2022-12-12T21:31:50.371Z,19.85
2022-12-12T21:34:21.833Z,21.10
2022-12-12T21:36:56.075Z,19.02
2022-12-12T21:39:26.700Z,18.13
2022-12-12T21:41:54.473Z,18.27
2022-12-12T21:44:22.122Z,19.42
2022-12-12T21:46:49.640Z,17.35
2022-12-12T21:49:26.514Z,18.67
2022-12-12T21:51:56.268Z,17.60
2022-12-12T21:54:24.715Z,17.75
2022-12-12T21:56:53.180Z,18.70
2022-12-12T21:59:20.517Z,19.30
2022-12-12T22:01:47.905Z,18.35
2022-12-12T22:04:16.051Z,19.80
2022-12-12T22:06:44.898Z,18.27
2022-12-12T22:12:31.608Z,18.85
2022-12-12T22:14:58.945Z,18.15
2022-12-12T22:17:26.280Z,17.95
2022-12-12T22:19:53.751Z,17.95
2022-12-12T22:22:21.498Z,20.30
2022-12-12T22:24:48.776Z,18.77
2022-12-12T22:27:16.185Z,18.80
2022-12-12T22:29:44.000Z,19.55
2022-12-12T22:32:11.264Z,18.10
2022-12-12T22:34:38.614Z,19.27
2022-12-12T22:37:05.928Z,18.23
2022-12-12T22:39:33.333Z,20.73
2022-12-12T22:42:00.824Z,20.27
2022-12-12T22:44:28.250Z,18.80
2022-12-12T22:46:55.974Z,20.63
2022-12-12T22:49:26.111Z,21.63
2022-12-12T22:51:55.783Z,19.08
2022-12-12T22:54:23.242Z,19.40
2022-12-12T22:56:50.738Z,22.02
2022-12-12T22:59:18.092Z,20.17
2022-12-12T23:01:45.351Z,21.08
2022-12-12T23:04:13.776Z,21.85
2022-12-12T23:06:42.421Z,20.65
2022-12-12T23:09:18.724Z,20.92
2022-12-12T23:11:46.365Z,22.50
2022-12-12T23:14:17.357Z,22.02
2022-12-12T23:16:45.314Z,21.17
2022-12-12T23:19:15.031Z,21.85
2022-12-12T23:21:42.740Z,22.45
2022-12-12T23:24:10.282Z,19.95
2022-12-12T23:26:38.598Z,22.02
2022-12-12T23:29:09.132Z,20.48
2022-12-12T23:31:37.908Z,23.15
2022-12-12T23:34:08.800Z,21.38
2022-12-12T23:36:36.273Z,22.17
2022-12-12T23:39:07.940Z,21.52
2022-12-12T23:41:36.539Z,21.10
2022-12-12T23:44:05.085Z,20.73
2022-12-12T23:46:32.857Z,22.70
2022-12-12T23:49:06.312Z,22.13
2022-12-12T23:51:37.283Z,20.98
2022-12-12T23:54:06.573Z,21.20
2022-12-12T23:56:34.054Z,23.08
2022-12-12T23:59:01.884Z,22.45
